createdAt,value
2022-08-03T00:00:26.592Z,21.03
2022-08-03T00:02:53.359Z,23.60
2022-08-03T00:05:19.986Z,17.23
2022-08-03T00:07:46.610Z,23.40
2022-08-03T00:10:15.278Z,19.70
2022-08-03T00:12:41.721Z,18.60
2022-08-03T00:15:11.462Z,17.80
2022-08-03T00:17:53.293Z,16.27
2022-08-03T00:20:23.863Z,14.90
2022-08-03T00:22:51.488Z,16.80
2022-08-03T00:25:18.210Z,17.83
2022-08-03T00:27:45.366Z,20.60
2022-08-03T00:30:11.936Z,19.17
2022-08-03T00:32:38.875Z,17.40
2022-08-03T00:35:18.048Z,20.87
2022-08-03T00:37:59.452Z,18.80
2022-08-03T00:40:26.391Z,17.30
2022-08-03T00:42:58.266Z,16.77
2022-08-03T00:45:29.986Z,19.77
2022-08-03T00:47:56.929Z,21.13
2022-08-03T00:50:24.906Z,21.87
2022-08-03T00:52:56.628Z,19.23
2022-08-03T00:55:23.633Z,20.33
2022-08-03T00:57:50.729Z,20.77
2022-08-03T01:00:20.214Z,16.03
2022-08-03T01:02:46.839Z,18.03
2022-08-03T01:05:13.407Z,21.83
2022-08-03T01:07:51.407Z,18.30
2022-08-03T01:10:42.209Z,20.03
2022-08-03T01:14:01.333Z,17.60
2022-08-03T01:16:16.063Z,22.20
2022-08-03T01:18:53.778Z,20.70
2022-08-03T01:21:27.151Z,17.07
2022-08-03T01:24:35.246Z,23.50
2022-08-03T01:27:09.504Z,25.73
2022-08-03T01:30:03.791Z,22.40
2022-08-03T01:33:01.056Z,21.10
2022-08-03T01:35:38.374Z,29.87
2022-08-03T01:38:35.178Z,27.43
2022-08-03T01:41:07.111Z,25.53
2022-08-03T01:43:55.494Z,20.10
2022-08-03T01:46:25.810Z,19.93
2022-08-03T01:48:53.143Z,22.67
2022-08-03T01:51:20.246Z,26.57
2022-08-03T01:53:48.716Z,22.80
2022-08-03T01:56:16.830Z,24.87
2022-08-03T01:58:44.213Z,21.67
2022-08-03T02:01:12.122Z,18.07
2022-08-03T02:03:59.790Z,20.10
2022-08-03T02:07:00.399Z,20.97
2022-08-03T02:09:15.218Z,24.20
2022-08-03T02:11:43.265Z,18.73
2022-08-03T02:14:10.734Z,21.20
2022-08-03T02:16:37.272Z,25.67
2022-08-03T02:19:07.301Z,21.23
2022-08-03T02:21:57.372Z,22.60
2022-08-03T02:24:23.907Z,22.90
2022-08-03T02:26:51.840Z,20.23
2022-08-03T02:29:22.071Z,20.27
2022-08-03T02:32:10.226Z,19.50
2022-08-03T02:34:37.032Z,30.27
2022-08-03T02:37:04.585Z,33.07
2022-08-03T02:39:33.977Z,26.67
2022-08-03T02:42:05.426Z,20.67
2022-08-03T02:44:34.262Z,18.60
2022-08-03T02:47:05.584Z,18.20
2022-08-03T02:49:41.111Z,20.50
2022-08-03T02:52:17.949Z,26.63
2022-08-03T02:54:46.540Z,19.53
2022-08-03T02:57:13.998Z,27.10
2022-08-03T02:59:41.234Z,20.77
2022-08-03T03:02:07.940Z,20.67
2022-08-03T03:04:35.368Z,21.53
2022-08-03T03:07:04.451Z,22.33
2022-08-03T03:09:41.860Z,18.93
2022-08-03T03:12:10.819Z,15.53
2022-08-03T03:14:38.324Z,15.13
2022-08-03T03:17:06.902Z,18.77
2022-08-03T03:19:34.628Z,18.83
2022-08-03T03:22:02.755Z,22.40
2022-08-03T03:24:30.372Z,25.73
2022-08-03T03:26:57.286Z,20.70
2022-08-03T03:29:24.043Z,21.60
2022-08-03T03:31:50.913Z,21.00
2022-08-03T03:34:18.569Z,22.77
2022-08-03T03:36:45.400Z,24.50
2022-08-03T03:39:15.444Z,17.53
2022-08-03T03:41:42.992Z,23.13
2022-08-03T03:44:09.638Z,40.57
2022-08-03T03:46:36.168Z,33.63
2022-08-03T03:49:02.861Z,26.20
2022-08-03T03:51:29.475Z,21.30
2022-08-03T03:54:00.544Z,21.57
2022-08-03T03:56:27.920Z,24.10
2022-08-03T03:58:54.893Z,18.67
2022-08-03T04:01:21.545Z,18.97
2022-08-03T04:03:48.192Z,24.13
2022-08-03T04:06:34.279Z,23.37
2022-08-03T04:09:19.643Z,23.23
2022-08-03T04:11:50.758Z,24.83
2022-08-03T04:14:23.356Z,23.43
2022-08-03T04:16:52.116Z,20.70
2022-08-03T04:19:27.323Z,23.13
2022-08-03T04:21:57.307Z,20.47
2022-08-03T04:24:26.816Z,22.13
2022-08-03T04:26:53.684Z,26.23
2022-08-03T04:29:20.919Z,25.80
2022-08-03T04:31:48.567Z,26.63
2022-08-03T04:34:15.590Z,20.07
2022-08-03T04:36:48.316Z,27.77
2022-08-03T04:39:20.015Z,25.87
2022-08-03T04:42:08.335Z,24.63
2022-08-03T04:44:40.728Z,22.90
2022-08-03T04:47:07.417Z,24.80
2022-08-03T04:49:36.448Z,21.53
2022-08-03T04:52:03.493Z,21.97
2022-08-03T04:54:30.039Z,29.97
2022-08-03T04:56:56.547Z,22.83
2022-08-03T04:59:23.162Z,21.53
2022-08-03T05:01:49.707Z,29.00
2022-08-03T05:04:16.351Z,26.23
2022-08-03T05:06:48.149Z,33.93
2022-08-03T05:09:14.967Z,32.70
2022-08-03T05:11:52.514Z,24.53
2022-08-03T05:14:19.030Z,22.43
2022-08-03T05:16:54.775Z,20.47
2022-08-03T05:19:21.219Z,24.20
2022-08-03T05:21:52.844Z,27.83
2022-08-03T05:24:19.840Z,29.93
2022-08-03T05:26:46.453Z,27.00
2022-08-03T05:29:13.024Z,23.80
2022-08-03T05:31:40.525Z,23.00
2022-08-03T05:34:07.805Z,23.73
2022-08-03T05:36:34.289Z,30.87
2022-08-03T05:39:02.805Z,25.17
2022-08-03T05:41:36.929Z,25.53
2022-08-03T05:44:04.534Z,24.17
2022-08-03T05:46:31.195Z,27.90
2022-08-03T05:48:57.799Z,24.17
2022-08-03T05:51:24.524Z,26.13
2022-08-03T05:53:51.062Z,25.07
2022-08-03T05:56:17.605Z,27.17
2022-08-03T05:58:45.272Z,26.90
2022-08-03T06:01:12.300Z,23.17
2022-08-03T06:03:38.893Z,23.43
2022-08-03T06:06:05.450Z,22.13
2022-08-03T06:08:32.469Z,25.67
2022-08-03T06:10:59.596Z,27.67
2022-08-03T06:13:26.225Z,23.40
2022-08-03T06:15:52.697Z,25.77
2022-08-03T06:18:19.261Z,23.17
2022-08-03T06:20:47.127Z,26.13
2022-08-03T06:23:18.054Z,18.60
2022-08-03T06:25:45.831Z,17.77
2022-08-03T06:28:42.551Z,21.23
2022-08-03T06:31:01.355Z,20.17
2022-08-03T06:33:48.547Z,24.20
2022-08-03T06:36:15.230Z,22.00
2022-08-03T06:38:41.981Z,19.80
2022-08-03T06:41:08.616Z,19.40
2022-08-03T06:43:37.650Z,22.43
2022-08-03T06:46:08.168Z,21.70
2022-08-03T06:48:34.903Z,22.60
2022-08-03T06:51:01.517Z,18.07
2022-08-03T06:53:27.994Z,22.73
2022-08-03T06:55:55.311Z,19.87
2022-08-03T06:58:22.609Z,22.37
2022-08-03T07:00:49.420Z,22.33
2022-08-03T07:03:16.517Z,23.20
2022-08-03T07:05:43.946Z,21.63
2022-08-03T07:08:10.682Z,19.33
2022-08-03T07:10:37.290Z,24.20
2022-08-03T07:13:04.631Z,18.77
2022-08-03T07:15:54.927Z,20.10
2022-08-03T07:18:17.880Z,15.43
2022-08-03T07:20:55.998Z,24.60
2022-08-03T07:23:22.503Z,20.00
2022-08-03T07:25:49.202Z,15.48
2022-08-03T07:28:15.786Z,22.23
2022-08-03T07:30:42.455Z,16.90
2022-08-03T07:33:09.131Z,18.75
2022-08-03T07:35:35.823Z,20.20
2022-08-03T07:38:02.343Z,16.52
2022-08-03T07:40:31.629Z,12.57
2022-08-03T07:42:58.489Z,11.45
2022-08-03T07:45:26.466Z,13.23
2022-08-03T07:47:53.999Z,11.52
2022-08-03T07:50:21.911Z,13.50
2022-08-03T07:52:49.337Z,18.75
2022-08-03T07:55:17.151Z,16.27
2022-08-03T07:57:44.405Z,11.80
2022-08-03T08:00:17.290Z,15.82
2022-08-03T08:02:44.613Z,10.20
2022-08-03T08:05:11.958Z,9.50
2022-08-03T08:07:38.988Z,16.47
2022-08-03T08:10:07.513Z,13.45
2022-08-03T08:12:34.510Z,12.20
2022-08-03T08:15:01.245Z,11.15
2022-08-03T08:17:27.895Z,8.95
2022-08-03T08:19:54.477Z,9.13
2022-08-03T08:22:30.170Z,7.75
2022-08-03T08:24:59.455Z,8.00
2022-08-03T08:27:26.176Z,7.70
2022-08-03T08:29:55.193Z,6.88
2022-08-03T08:32:23.527Z,7.95
2022-08-03T08:34:50.039Z,8.13
2022-08-03T08:37:16.526Z,7.33
2022-08-03T08:39:43.101Z,6.30
2022-08-03T08:42:10.196Z,5.70
2022-08-03T08:44:36.658Z,8.10
2022-08-03T08:47:03.881Z,8.98
2022-08-03T08:49:33.168Z,5.70
2022-08-03T08:52:01.361Z,6.25
2022-08-03T08:54:29.367Z,7.47
2022-08-03T08:56:56.368Z,6.57
2022-08-03T08:59:24.342Z,6.78
2022-08-03T09:01:50.971Z,5.05
2022-08-03T09:04:17.874Z,4.57
2022-08-03T09:06:58.692Z,4.60
2022-08-03T09:10:07.598Z,9.40
2022-08-03T09:12:41.208Z,11.32
2022-08-03T09:15:27.022Z,6.05
2022-08-03T09:17:58.373Z,7.85
2022-08-03T09:20:26.623Z,7.25
2022-08-03T09:22:54.675Z,7.22
2022-08-03T09:25:37.592Z,4.30
2022-08-03T09:28:06.316Z,5.95
2022-08-03T09:30:34.341Z,14.20
2022-08-03T09:33:03.402Z,6.35
2022-08-03T09:35:52.994Z,4.65
2022-08-03T09:38:18.018Z,4.78
2022-08-03T09:40:46.255Z,3.58
2022-08-03T09:43:13.875Z,3.17
2022-08-03T09:45:41.182Z,6.90
2022-08-03T09:48:37.383Z,7.13
2022-08-03T09:51:32.312Z,5.87
2022-08-03T09:53:58.758Z,5.03
2022-08-03T09:56:39.065Z,5.07
2022-08-03T09:59:05.650Z,3.73
2022-08-03T10:01:35.600Z,7.25
2022-08-03T10:04:03.594Z,4.90
2022-08-03T10:06:31.054Z,5.05
2022-08-03T10:09:11.644Z,4.40
2022-08-03T10:11:41.684Z,5.80
2022-08-03T10:14:11.236Z,6.20
2022-08-03T10:16:40.669Z,6.73
2022-08-03T10:19:08.547Z,6.17
2022-08-03T10:21:37.417Z,6.73
2022-08-03T10:24:06.332Z,6.87
2022-08-03T10:26:38.297Z,4.18
2022-08-03T10:29:12.892Z,6.25
2022-08-03T10:31:57.311Z,3.50
2022-08-03T10:34:26.404Z,3.83
2022-08-03T10:36:56.709Z,5.50
2022-08-03T10:39:24.542Z,5.57
2022-08-03T10:41:51.680Z,4.40
2022-08-03T10:44:21.066Z,3.65
2022-08-03T10:46:48.820Z,6.70
2022-08-03T10:49:26.311Z,11.20
2022-08-03T10:52:00.745Z,5.53
2022-08-03T10:54:35.355Z,4.00
2022-08-03T10:57:20.568Z,4.82
2022-08-03T10:59:47.241Z,8.70
2022-08-03T11:02:16.664Z,4.77
2022-08-03T11:04:44.781Z,3.80
2022-08-03T11:07:24.182Z,3.17
2022-08-03T11:09:55.009Z,8.03
2022-08-03T11:12:31.170Z,4.95
2022-08-03T11:15:03.894Z,4.03
2022-08-03T11:17:30.740Z,4.37
2022-08-03T11:19:58.653Z,6.60
2022-08-03T11:22:25.733Z,6.32
2022-08-03T11:24:54.465Z,5.00
2022-08-03T11:27:23.015Z,7.70
2022-08-03T11:30:05.306Z,6.90
2022-08-03T11:32:37.531Z,3.88
2022-08-03T11:35:08.809Z,5.70
2022-08-03T11:37:36.078Z,4.63
2022-08-03T11:40:03.844Z,8.20
2022-08-03T11:42:34.278Z,4.22
2022-08-03T11:45:00.934Z,4.10
2022-08-03T11:47:28.792Z,4.38
2022-08-03T11:50:01.793Z,4.47
2022-08-03T11:52:34.867Z,3.85
2022-08-03T11:55:02.019Z,5.65
2022-08-03T11:59:01.931Z,7.07
2022-08-03T12:00:30.605Z,5.03
2022-08-03T12:03:12.251Z,6.38
2022-08-03T12:05:51.104Z,3.75
2022-08-03T12:08:39.558Z,5.22
2022-08-03T12:11:08.072Z,5.05
2022-08-03T12:14:44.706Z,5.95
2022-08-03T12:16:29.770Z,4.28
2022-08-03T12:19:07.021Z,6.85
2022-08-03T12:21:34.788Z,5.25
2022-08-03T12:24:05.388Z,7.13
2022-08-03T12:26:58.392Z,5.63
2022-08-03T12:29:26.867Z,7.53
2022-08-03T12:31:55.983Z,11.23
2022-08-03T12:34:22.814Z,6.20
2022-08-03T12:36:53.831Z,6.80
2022-08-03T12:39:24.128Z,6.65
2022-08-03T12:41:54.303Z,6.43
2022-08-03T12:44:30.544Z,7.55
2022-08-03T12:47:00.558Z,7.07
2022-08-03T12:49:27.369Z,7.90
2022-08-03T12:51:54.130Z,6.10
2022-08-03T12:54:24.720Z,4.17
2022-08-03T12:57:05.615Z,5.80
2022-08-03T12:59:35.189Z,7.03
2022-08-03T13:02:17.952Z,5.35
2022-08-03T13:04:46.930Z,11.10
2022-08-03T13:07:15.061Z,3.50
2022-08-03T13:09:44.313Z,3.03
2022-08-03T13:12:13.741Z,7.50
2022-08-03T13:14:41.355Z,4.05
2022-08-03T13:17:08.694Z,6.88
2022-08-03T13:19:38.829Z,6.03
2022-08-03T13:22:25.392Z,4.75
2022-08-03T13:24:53.570Z,7.35
2022-08-03T13:28:01.561Z,5.75
2022-08-03T13:30:08.132Z,6.90
2022-08-03T13:32:35.043Z,4.22
2022-08-03T13:35:02.825Z,5.88
2022-08-03T13:37:32.539Z,6.07
2022-08-03T13:40:02.537Z,4.00
2022-08-03T13:42:31.501Z,6.07
2022-08-03T13:44:58.752Z,6.25
2022-08-03T13:47:25.540Z,12.48
2022-08-03T13:49:59.967Z,7.40
2022-08-03T13:52:36.452Z,17.05
2022-08-03T13:55:05.150Z,6.80
2022-08-03T13:58:05.171Z,7.43
2022-08-03T14:00:27.725Z,6.45
2022-08-03T14:03:02.698Z,6.68
2022-08-03T14:05:32.023Z,5.87
2022-08-03T14:08:04.799Z,5.32
2022-08-03T14:10:36.177Z,6.45
2022-08-03T14:13:03.844Z,5.15
2022-08-03T14:15:30.674Z,5.68
2022-08-03T14:17:58.517Z,6.80
2022-08-03T14:20:38.051Z,6.50
2022-08-03T14:23:12.961Z,4.13
2022-08-03T14:25:51.691Z,6.15
2022-08-03T14:28:22.960Z,4.50
2022-08-03T14:30:50.535Z,7.38
2022-08-03T14:33:17.059Z,6.13
2022-08-03T14:35:43.639Z,7.32
2022-08-03T14:38:10.181Z,4.93
2022-08-03T14:40:36.668Z,4.10
2022-08-03T14:43:03.376Z,6.15
2022-08-03T14:45:30.009Z,6.18
2022-08-03T14:50:33.073Z,6.28
2022-08-03T14:50:50.173Z,4.78
2022-08-03T14:53:17.779Z,8.65
2022-08-03T14:55:49.852Z,3.37
2022-08-03T14:58:21.987Z,5.65
2022-08-03T15:00:50.094Z,7.28
2022-08-03T15:03:17.617Z,3.72
2022-08-03T15:05:44.614Z,5.43
2022-08-03T15:08:11.253Z,6.75
2022-08-03T15:10:43.919Z,4.90
2022-08-03T15:13:11.544Z,7.50
2022-08-03T15:15:38.442Z,3.95
2022-08-03T15:18:05.034Z,6.90
2022-08-03T15:20:43.416Z,5.60
2022-08-03T15:23:11.088Z,7.70
2022-08-03T15:26:28.679Z,5.40
2022-08-03T15:28:24.223Z,4.63
2022-08-03T15:30:52.896Z,6.43
2022-08-03T15:33:19.423Z,5.68
2022-08-03T15:35:47.370Z,6.35
2022-08-03T15:38:13.995Z,4.22
2022-08-03T15:40:42.984Z,6.63
2022-08-03T15:43:09.841Z,10.73
2022-08-03T15:45:37.059Z,5.85
2022-08-03T15:48:06.819Z,4.32
2022-08-03T15:50:34.862Z,4.20
2022-08-03T15:53:01.470Z,4.97
2022-08-03T15:55:28.009Z,9.55
2022-08-03T15:59:11.277Z,5.70
2022-08-03T16:00:42.655Z,5.65
2022-08-03T16:03:10.217Z,6.95
2022-08-03T16:05:36.844Z,9.77
2022-08-03T16:08:05.631Z,6.28
2022-08-03T16:10:34.729Z,5.07
2022-08-03T16:13:01.287Z,6.38
2022-08-03T16:15:27.797Z,6.45
2022-08-03T16:17:54.971Z,3.63
2022-08-03T16:20:31.324Z,4.60
2022-08-03T16:23:08.538Z,6.72
2022-08-03T16:25:41.056Z,7.88
2022-08-03T16:28:13.543Z,6.82
2022-08-03T16:30:42.274Z,7.20
2022-08-03T16:33:08.975Z,5.63
2022-08-03T16:35:35.546Z,6.53
2022-08-03T16:38:06.514Z,13.02
2022-08-03T16:40:36.043Z,6.05
2022-08-03T16:43:18.750Z,3.83
2022-08-03T16:45:46.361Z,4.87
2022-08-03T16:48:13.991Z,4.43
2022-08-03T16:50:40.727Z,7.15
2022-08-03T16:53:09.166Z,5.97
2022-08-03T16:55:48.962Z,4.82
2022-08-03T16:58:34.858Z,9.65
2022-08-03T17:01:21.485Z,6.13
2022-08-03T17:04:01.272Z,3.95
2022-08-03T17:06:33.931Z,7.07
2022-08-03T17:09:01.461Z,4.28
2022-08-03T17:11:29.670Z,6.57
2022-08-03T17:13:59.103Z,8.30
2022-08-03T17:16:25.758Z,6.53
2022-08-03T17:18:56.444Z,6.80
2022-08-03T17:21:26.447Z,9.60
2022-08-03T17:24:12.116Z,11.35
2022-08-03T17:26:44.610Z,5.72
2022-08-03T17:29:13.167Z,5.97
2022-08-03T17:31:48.715Z,5.50
2022-08-03T17:34:16.873Z,8.27
2022-08-03T17:39:57.056Z,7.15
2022-08-03T17:42:31.218Z,11.95
2022-08-03T17:45:01.993Z,6.50
2022-08-03T17:47:42.713Z,7.67
2022-08-03T17:50:25.100Z,6.23
2022-08-03T17:52:55.184Z,5.60
2022-08-03T17:55:55.682Z,4.75
2022-08-03T17:58:25.528Z,7.57
2022-08-03T18:02:00.602Z,9.33
2022-08-03T18:04:11.104Z,3.67
2022-08-03T18:06:56.470Z,4.60
2022-08-03T18:10:03.195Z,8.97
2022-08-03T18:12:18.920Z,5.93
2022-08-03T18:14:57.579Z,8.63
2022-08-03T18:20:34.246Z,9.93
2022-08-03T18:23:04.997Z,8.47
2022-08-03T18:25:42.903Z,5.43
2022-08-03T18:28:16.430Z,6.57
2022-08-03T18:30:54.423Z,6.97
2022-08-03T18:34:18.664Z,4.93
2022-08-03T18:36:22.025Z,4.93
2022-08-03T18:38:58.527Z,5.50
2022-08-03T18:41:33.312Z,10.47
2022-08-03T18:44:08.323Z,8.13
2022-08-03T18:46:50.984Z,5.30
2022-08-03T18:49:29.206Z,10.00
2022-08-03T18:52:04.833Z,5.10
2022-08-03T18:55:09.372Z,6.63
2022-08-03T18:57:56.973Z,8.30
2022-08-03T19:00:42.727Z,10.07
2022-08-03T19:03:20.285Z,13.30
2022-08-03T19:06:02.703Z,10.30
2022-08-03T19:08:41.823Z,14.97
2022-08-03T19:11:10.922Z,9.70
2022-08-03T19:13:50.240Z,14.77
2022-08-03T19:16:42.289Z,9.53
2022-08-03T19:19:14.397Z,22.60
2022-08-03T19:21:41.252Z,17.10
2022-08-03T19:24:10.190Z,18.07
2022-08-03T19:26:39.504Z,13.03
2022-08-03T19:29:15.111Z,15.97
2022-08-03T19:31:58.882Z,17.97
2022-08-03T19:34:28.962Z,13.27
2022-08-03T19:36:58.607Z,15.03
2022-08-03T19:39:25.468Z,20.03
2022-08-03T19:41:52.670Z,18.20
2022-08-03T19:44:24.384Z,15.20
2022-08-03T19:46:58.442Z,19.43
2022-08-03T19:49:57.079Z,17.80
2022-08-03T19:52:16.781Z,26.77
2022-08-03T19:54:53.829Z,28.70
2022-08-03T19:57:23.364Z,21.20
2022-08-03T19:59:51.550Z,30.17
2022-08-03T20:02:25.714Z,24.30
2022-08-03T20:04:55.898Z,16.90
2022-08-03T20:07:22.992Z,23.10
2022-08-03T20:09:56.094Z,19.47
2022-08-03T20:12:27.374Z,16.33
2022-08-03T20:14:57.017Z,15.27
2022-08-03T20:17:54.468Z,16.03
2022-08-03T20:20:10.428Z,11.33
2022-08-03T20:22:41.908Z,12.07
2022-08-03T20:25:11.233Z,9.50
2022-08-03T20:28:06.721Z,14.53
2022-08-03T20:30:33.269Z,20.60
2022-08-03T20:33:00.031Z,19.80
2022-08-03T20:35:26.989Z,20.17
2022-08-03T20:37:54.521Z,11.30
2022-08-03T20:40:22.535Z,8.90
2022-08-03T20:42:55.196Z,12.87
2022-08-03T20:45:59.416Z,10.47
2022-08-03T20:48:10.170Z,10.80
2022-08-03T20:50:38.406Z,12.20
2022-08-03T20:53:06.622Z,14.13
2022-08-03T20:55:47.191Z,11.17
2022-08-03T20:58:20.335Z,14.93
2022-08-03T21:03:41.076Z,17.53
2022-08-03T21:06:27.686Z,14.10
2022-08-03T21:09:03.765Z,11.37
2022-08-03T21:11:41.833Z,12.67
2022-08-03T21:13:04.378Z,8.03
2022-08-03T21:13:14.115Z,10.03
2022-08-03T21:14:38.103Z,17.17
2022-08-03T21:17:14.053Z,16.20
2022-08-03T21:19:52.098Z,14.03
2022-08-03T21:22:22.244Z,18.43
2022-08-03T21:24:54.111Z,30.17
2022-08-03T21:27:25.369Z,23.27
2022-08-03T21:29:53.162Z,15.40
2022-08-03T21:32:32.348Z,16.07
2022-08-03T21:35:00.566Z,18.63
2022-08-03T21:37:27.718Z,13.73
2022-08-03T21:39:55.872Z,19.53
2022-08-03T21:42:25.786Z,12.40
2022-08-03T21:44:53.186Z,12.90
2022-08-03T21:47:22.428Z,14.50
2022-08-03T21:50:07.811Z,10.50
2022-08-03T21:52:44.090Z,12.80
2022-08-03T21:55:20.935Z,9.80
2022-08-03T21:57:51.462Z,10.50
2022-08-03T22:00:20.729Z,10.27
2022-08-03T22:02:55.477Z,9.50
2022-08-03T22:05:29.179Z,9.10
2022-08-03T22:08:12.595Z,12.27
2022-08-03T22:10:39.537Z,7.60
2022-08-03T22:13:06.216Z,7.93
2022-08-03T22:15:33.177Z,8.90
2022-08-03T22:18:04.755Z,10.77
2022-08-03T22:20:31.624Z,6.07
2022-08-03T22:23:02.331Z,8.13
2022-08-03T22:25:34.159Z,8.63
2022-08-03T22:28:08.651Z,7.53
2022-08-03T22:30:36.000Z,11.33
2022-08-03T22:33:05.149Z,8.77
2022-08-03T22:35:47.295Z,8.87
2022-08-03T22:38:15.594Z,7.30
2022-08-03T22:40:42.277Z,8.63
2022-08-03T22:43:08.973Z,13.17
2022-08-03T22:46:09.066Z,10.77
2022-08-03T22:48:22.522Z,9.00
2022-08-03T22:50:49.541Z,7.40
2022-08-03T22:53:18.951Z,9.00
2022-08-03T22:55:47.822Z,8.67
2022-08-03T22:58:17.355Z,11.67
2022-08-03T23:00:48.273Z,6.67
2022-08-03T23:03:24.377Z,9.70
2022-08-03T23:06:01.225Z,10.73
2022-08-03T23:08:33.254Z,10.40
2022-08-03T23:11:08.473Z,8.10
2022-08-03T23:13:36.347Z,8.03
2022-08-03T23:16:06.360Z,8.57
2022-08-03T23:18:37.589Z,7.30
2022-08-03T23:21:10.943Z,9.83
2022-08-03T23:23:44.632Z,10.23
2022-08-03T23:26:11.631Z,10.93
2022-08-03T23:28:38.584Z,8.93
2022-08-03T23:31:07.985Z,10.60
2022-08-03T23:33:35.341Z,16.23
2022-08-03T23:36:28.015Z,12.07
2022-08-03T23:38:53.629Z,6.83
2022-08-03T23:41:20.366Z,8.57
2022-08-03T23:43:52.018Z,10.27
2022-08-03T23:46:22.788Z,10.33
2022-08-03T23:48:49.901Z,7.57
2022-08-03T23:51:35.204Z,7.53
2022-08-03T23:54:26.638Z,10.87
2022-08-03T23:57:01.952Z,10.17
2022-08-03T23:59:52.037Z,7.20
